Miami, Florida
Current Conditions -  °F | °C
As of 4:53 AM on Saturday 01 Nov 2014 (Local Time) from KMIA Reporting Station
Clear Clear  
Wind Chill: 66°   Ceiling: Unl
Heat Index: 66°   Visibility: 10mi
Dew Point: 53°   Wind: 9mph
Humidity: 63%   Direction: 310°NW
Pressure: 29.93"   Gusts: NA
Location:  25.77°N, 80.19°W
Report Text: KMIA 010853Z 31008KT 10SM CLR 19/12 A2993 RMK AO2 SLP135 T01890117 53005
Loading
Personal Weather Stations






























Interactive Weather Map
Tropical Storm Tracking
New forecast layout! Learn more

10-Day Weather Forecast

Advertisements
Track Severe Weather on mobile